sensor_id;sensor_type;location;lat;lon;timestamp;P1;durP1;ratioP1;P2;durP2;ratioP2
59587;SDS011;45412;54.472;18.464;2023-03-25T00:01:07;14.90;;;4.50;;
59587;SDS011;45412;54.472;18.464;2023-03-25T00:04:00;15.30;;;4.70;;
59587;SDS011;45412;54.472;18.464;2023-03-25T00:06:49;14.70;;;5.00;;
59587;SDS011;45412;54.472;18.464;2023-03-25T00:09:37;15.70;;;5.50;;
59587;SDS011;45412;54.472;18.464;2023-03-25T00:12:23;13.80;;;5.00;;
59587;SDS011;45412;54.472;18.464;2023-03-25T00:15:12;12.80;;;4.30;;
59587;SDS011;45412;54.472;18.464;2023-03-25T00:18:03;14.60;;;5.00;;
59587;SDS011;45412;54.472;18.464;2023-03-25T00:20:52;17.10;;;5.40;;
59587;SDS011;45412;54.472;18.464;2023-03-25T00:23:40;13.80;;;4.70;;
59587;SDS011;45412;54.472;18.464;2023-03-25T00:26:27;14.60;;;4.80;;
59587;SDS011;45412;54.472;18.464;2023-03-25T00:29:15;10.90;;;3.70;;
59587;SDS011;45412;54.472;18.464;2023-03-25T00:32:02;12.60;;;4.10;;
59587;SDS011;45412;54.472;18.464;2023-03-25T00:34:49;14.80;;;4.80;;
59587;SDS011;45412;54.472;18.464;2023-03-25T00:37:36;19.00;;;5.70;;
59587;SDS011;45412;54.472;18.464;2023-03-25T00:40:23;15.00;;;4.70;;
59587;SDS011;45412;54.472;18.464;2023-03-25T00:43:11;10.90;;;4.40;;
59587;SDS011;45412;54.472;18.464;2023-03-25T00:45:58;14.70;;;4.80;;
59587;SDS011;45412;54.472;18.464;2023-03-25T00:48:44;15.70;;;5.10;;
59587;SDS011;45412;54.472;18.464;2023-03-25T00:51:31;12.40;;;4.40;;
59587;SDS011;45412;54.472;18.464;2023-03-25T00:54:18;13.10;;;4.70;;
59587;SDS011;45412;54.472;18.464;2023-03-25T00:57:07;13.40;;;5.50;;
59587;SDS011;45412;54.472;18.464;2023-03-25T00:59:54;15.70;;;6.40;;
59587;SDS011;45412;54.472;18.464;2023-03-25T01:02:40;12.20;;;5.10;;
59587;SDS011;45412;54.472;18.464;2023-03-25T01:05:29;14.60;;;5.80;;
59587;SDS011;45412;54.472;18.464;2023-03-25T01:08:16;13.90;;;4.90;;
59587;SDS011;45412;54.472;18.464;2023-03-25T01:11:03;10.70;;;4.70;;
59587;SDS011;45412;54.472;18.464;2023-03-25T01:13:51;10.20;;;5.10;;
59587;SDS011;45412;54.472;18.464;2023-03-25T01:16:39;11.20;;;5.10;;
59587;SDS011;45412;54.472;18.464;2023-03-25T01:19:26;11.60;;;6.00;;
59587;SDS011;45412;54.472;18.464;2023-03-25T01:22:13;12.70;;;5.90;;
59587;SDS011;45412;54.472;18.464;2023-03-25T01:25:00;12.90;;;6.20;;
59587;SDS011;45412;54.472;18.464;2023-03-25T01:27:50;11.70;;;5.40;;
59587;SDS011;45412;54.472;18.464;2023-03-25T01:30:37;7.50;;;3.60;;
59587;SDS011;45412;54.472;18.464;2023-03-25T01:33:24;9.40;;;4.80;;
59587;SDS011;45412;54.472;18.464;2023-03-25T01:36:10;11.40;;;5.90;;
59587;SDS011;45412;54.472;18.464;2023-03-25T01:38:58;12.40;;;6.00;;
59587;SDS011;45412;54.472;18.464;2023-03-25T01:41:48;10.70;;;5.00;;
59587;SDS011;45412;54.472;18.464;2023-03-25T01:47:23;11.60;;;5.20;;
59587;SDS011;45412;54.472;18.464;2023-03-25T01:50:12;11.60;;;6.40;;
59587;SDS011;45412;54.472;18.464;2023-03-25T01:53:01;11.20;;;5.90;;
59587;SDS011;45412;54.472;18.464;2023-03-25T01:55:49;10.70;;;5.80;;
59587;SDS011;45412;54.472;18.464;2023-03-25T01:58:39;11.90;;;6.80;;
59587;SDS011;45412;54.472;18.464;2023-03-25T02:01:26;11.60;;;5.80;;
59587;SDS011;45412;54.472;18.464;2023-03-25T02:04:14;11.90;;;6.20;;
59587;SDS011;45412;54.472;18.464;2023-03-25T02:07:07;12.70;;;6.00;;
59587;SDS011;45412;54.472;18.464;2023-03-25T02:09:59;14.00;;;6.50;;
59587;SDS011;45412;54.472;18.464;2023-03-25T02:12:50;13.90;;;6.30;;
59587;SDS011;45412;54.472;18.464;2023-03-25T02:15:44;13.10;;;5.30;;
59587;SDS011;45412;54.472;18.464;2023-03-25T02:36:39;11.40;;;4.80;;
59587;SDS011;45412;54.472;18.464;2023-03-25T02:43:26;10.90;;;4.40;;
59587;SDS011;45412;54.472;18.464;2023-03-25T02:46:03;10.70;;;4.40;;
59587;SDS011;45412;54.472;18.464;2023-03-25T02:52:03;12.40;;;4.60;;
59587;SDS011;45412;54.472;18.464;2023-03-25T02:54:55;14.00;;;4.20;;
59587;SDS011;45412;54.472;18.464;2023-03-25T02:57:49;9.70;;;4.00;;
59587;SDS011;45412;54.472;18.464;2023-03-25T03:00:40;10.50;;;4.60;;
59587;SDS011;45412;54.472;18.464;2023-03-25T03:03:27;9.90;;;3.90;;
59587;SDS011;45412;54.472;18.464;2023-03-25T03:06:16;10.90;;;4.00;;
59587;SDS011;45412;54.472;18.464;2023-03-25T03:19:27;8.70;;;3.90;;
59587;SDS011;45412;54.472;18.464;2023-03-25T03:22:58;9.90;;;3.50;;
59587;SDS011;45412;54.472;18.464;2023-03-25T03:26:04;9.80;;;4.00;;
59587;SDS011;45412;54.472;18.464;2023-03-25T03:29:23;10.10;;;3.70;;
59587;SDS011;45412;54.472;18.464;2023-03-25T03:35:21;8.80;;;3.40;;
59587;SDS011;45412;54.472;18.464;2023-03-25T03:38:13;8.80;;;3.10;;
59587;SDS011;45412;54.472;18.464;2023-03-25T03:41:08;14.10;;;4.10;;
59587;SDS011;45412;54.472;18.464;2023-03-25T03:44:00;10.20;;;3.70;;
59587;SDS011;45412;54.472;18.464;2023-03-25T03:47:08;10.90;;;3.60;;
59587;SDS011;45412;54.472;18.464;2023-03-25T03:50:04;9.90;;;3.60;;
59587;SDS011;45412;54.472;18.464;2023-03-25T03:53:11;9.10;;;3.50;;
59587;SDS011;45412;54.472;18.464;2023-03-25T03:56:31;9.10;;;3.60;;
59587;SDS011;45412;54.472;18.464;2023-03-25T03:59:38;10.70;;;3.50;;
59587;SDS011;45412;54.472;18.464;2023-03-25T04:02:36;11.20;;;4.30;;
59587;SDS011;45412;54.472;18.464;2023-03-25T04:05:25;8.40;;;3.70;;
59587;SDS011;45412;54.472;18.464;2023-03-25T04:08:37;9.20;;;3.60;;
59587;SDS011;45412;54.472;18.464;2023-03-25T04:11:55;11.20;;;4.10;;
59587;SDS011;45412;54.472;18.464;2023-03-25T04:14:58;10.10;;;3.90;;
59587;SDS011;45412;54.472;18.464;2023-03-25T04:17:48;9.10;;;3.80;;
59587;SDS011;45412;54.472;18.464;2023-03-25T04:20:35;13.20;;;3.80;;
59587;SDS011;45412;54.472;18.464;2023-03-25T04:23:22;9.20;;;2.40;;
59587;SDS011;45412;54.472;18.464;2023-03-25T04:26:09;8.50;;;3.50;;
59587;SDS011;45412;54.472;18.464;2023-03-25T04:28:55;10.50;;;3.80;;
59587;SDS011;45412;54.472;18.464;2023-03-25T04:31:46;10.90;;;3.80;;
59587;SDS011;45412;54.472;18.464;2023-03-25T04:34:36;9.80;;;3.70;;
59587;SDS011;45412;54.472;18.464;2023-03-25T04:37:28;8.40;;;3.90;;
59587;SDS011;45412;54.472;18.464;2023-03-25T04:40:19;8.20;;;3.80;;
59587;SDS011;45412;54.472;18.464;2023-03-25T04:43:05;10.30;;;4.50;;
59587;SDS011;45412;54.472;18.464;2023-03-25T04:45:53;10.30;;;3.80;;
59587;SDS011;45412;54.472;18.464;2023-03-25T04:48:41;11.20;;;3.90;;
59587;SDS011;45412;54.472;18.464;2023-03-25T04:51:30;10.30;;;3.60;;
59587;SDS011;45412;54.472;18.464;2023-03-25T04:54:18;11.00;;;3.70;;
59587;SDS011;45412;54.472;18.464;2023-03-25T04:57:06;10.80;;;3.70;;
59587;SDS011;45412;54.472;18.464;2023-03-25T04:59:55;9.60;;;3.40;;
59587;SDS011;45412;54.472;18.464;2023-03-25T05:02:46;11.40;;;3.50;;
59587;SDS011;45412;54.472;18.464;2023-03-25T05:05:34;9.40;;;3.70;;
59587;SDS011;45412;54.472;18.464;2023-03-25T05:08:21;9.20;;;3.60;;
59587;SDS011;45412;54.472;18.464;2023-03-25T05:11:07;9.30;;;3.60;;
59587;SDS011;45412;54.472;18.464;2023-03-25T05:13:55;11.10;;;3.30;;
59587;SDS011;45412;54.472;18.464;2023-03-25T05:16:42;9.00;;;3.30;;
59587;SDS011;45412;54.472;18.464;2023-03-25T05:19:29;7.20;;;2.70;;
59587;SDS011;45412;54.472;18.464;2023-03-25T05:22:19;7.90;;;3.30;;
59587;SDS011;45412;54.472;18.464;2023-03-25T05:25:07;7.70;;;3.60;;
59587;SDS011;45412;54.472;18.464;2023-03-25T05:27:55;10.70;;;3.30;;
59587;SDS011;45412;54.472;18.464;2023-03-25T05:30:43;8.50;;;3.70;;
59587;SDS011;45412;54.472;18.464;2023-03-25T05:33:31;10.20;;;3.50;;
59587;SDS011;45412;54.472;18.464;2023-03-25T05:36:18;9.40;;;3.40;;
59587;SDS011;45412;54.472;18.464;2023-03-25T05:39:04;8.90;;;3.40;;
59587;SDS011;45412;54.472;18.464;2023-03-25T05:41:51;11.70;;;3.90;;
59587;SDS011;45412;54.472;18.464;2023-03-25T05:44:40;9.10;;;3.50;;
59587;SDS011;45412;54.472;18.464;2023-03-25T05:47:36;10.70;;;3.30;;
59587;SDS011;45412;54.472;18.464;2023-03-25T05:50:22;9.40;;;3.30;;
59587;SDS011;45412;54.472;18.464;2023-03-25T05:53:10;9.40;;;3.60;;
59587;SDS011;45412;54.472;18.464;2023-03-25T05:55:58;8.00;;;3.10;;
59587;SDS011;45412;54.472;18.464;2023-03-25T05:58:46;9.40;;;4.00;;
59587;SDS011;45412;54.472;18.464;2023-03-25T06:01:34;13.50;;;5.80;;
59587;SDS011;45412;54.472;18.464;2023-03-25T06:04:23;8.90;;;4.20;;
59587;SDS011;45412;54.472;18.464;2023-03-25T06:07:10;10.60;;;4.50;;
59587;SDS011;45412;54.472;18.464;2023-03-25T06:10:05;9.70;;;3.50;;
59587;SDS011;45412;54.472;18.464;2023-03-25T06:12:51;9.50;;;3.30;;
59587;SDS011;45412;54.472;18.464;2023-03-25T06:15:39;11.30;;;4.90;;
59587;SDS011;45412;54.472;18.464;2023-03-25T06:18:27;11.70;;;4.00;;
59587;SDS011;45412;54.472;18.464;2023-03-25T06:21:13;8.50;;;3.10;;
59587;SDS011;45412;54.472;18.464;2023-03-25T06:24:00;8.80;;;3.70;;
59587;SDS011;45412;54.472;18.464;2023-03-25T06:26:46;9.50;;;3.70;;
59587;SDS011;45412;54.472;18.464;2023-03-25T06:29:34;11.80;;;3.90;;
59587;SDS011;45412;54.472;18.464;2023-03-25T06:32:22;12.80;;;4.30;;
59587;SDS011;45412;54.472;18.464;2023-03-25T06:35:10;10.50;;;4.60;;
59587;SDS011;45412;54.472;18.464;2023-03-25T06:37:57;9.30;;;3.70;;
59587;SDS011;45412;54.472;18.464;2023-03-25T06:41:04;17.60;;;9.60;;
59587;SDS011;45412;54.472;18.464;2023-03-25T06:43:52;9.50;;;4.70;;
59587;SDS011;45412;54.472;18.464;2023-03-25T06:46:58;9.00;;;3.60;;
59587;SDS011;45412;54.472;18.464;2023-03-25T06:49:49;7.60;;;3.40;;
59587;SDS011;45412;54.472;18.464;2023-03-25T06:52:35;8.70;;;3.30;;
59587;SDS011;45412;54.472;18.464;2023-03-25T06:55:24;8.40;;;2.90;;
59587;SDS011;45412;54.472;18.464;2023-03-25T06:58:10;11.40;;;4.10;;
59587;SDS011;45412;54.472;18.464;2023-03-25T07:00:57;15.90;;;8.80;;
59587;SDS011;45412;54.472;18.464;2023-03-25T07:03:48;11.00;;;5.20;;
59587;SDS011;45412;54.472;18.464;2023-03-25T07:06:35;9.70;;;2.90;;
59587;SDS011;45412;54.472;18.464;2023-03-25T07:09:21;7.30;;;2.70;;
59587;SDS011;45412;54.472;18.464;2023-03-25T07:12:07;7.80;;;2.60;;
59587;SDS011;45412;54.472;18.464;2023-03-25T07:14:55;7.00;;;2.60;;
59587;SDS011;45412;54.472;18.464;2023-03-25T07:17:42;7.10;;;2.40;;
59587;SDS011;45412;54.472;18.464;2023-03-25T07:20:29;6.60;;;2.30;;
59587;SDS011;45412;54.472;18.464;2023-03-25T07:23:16;8.50;;;2.80;;
59587;SDS011;45412;54.472;18.464;2023-03-25T07:26:02;7.10;;;2.60;;
59587;SDS011;45412;54.472;18.464;2023-03-25T07:28:49;8.80;;;2.80;;
59587;SDS011;45412;54.472;18.464;2023-03-25T07:31:35;9.60;;;3.50;;
59587;SDS011;45412;54.472;18.464;2023-03-25T07:34:22;8.60;;;3.00;;
59587;SDS011;45412;54.472;18.464;2023-03-25T07:37:09;7.30;;;2.80;;
59587;SDS011;45412;54.472;18.464;2023-03-25T07:39:55;7.70;;;2.70;;
59587;SDS011;45412;54.472;18.464;2023-03-25T07:42:43;10.20;;;3.40;;
59587;SDS011;45412;54.472;18.464;2023-03-25T07:45:40;8.90;;;3.30;;
59587;SDS011;45412;54.472;18.464;2023-03-25T07:48:30;8.30;;;3.10;;
59587;SDS011;45412;54.472;18.464;2023-03-25T07:51:17;9.00;;;3.10;;
59587;SDS011;45412;54.472;18.464;2023-03-25T07:54:04;8.60;;;2.90;;
59587;SDS011;45412;54.472;18.464;2023-03-25T07:56:51;10.80;;;4.00;;
59587;SDS011;45412;54.472;18.464;2023-03-25T07:59:39;9.00;;;3.40;;
59587;SDS011;45412;54.472;18.464;2023-03-25T08:02:26;10.90;;;5.30;;
59587;SDS011;45412;54.472;18.464;2023-03-25T08:05:14;9.20;;;3.70;;
59587;SDS011;45412;54.472;18.464;2023-03-25T08:08:06;8.90;;;3.50;;
59587;SDS011;45412;54.472;18.464;2023-03-25T08:10:53;9.80;;;4.50;;
59587;SDS011;45412;54.472;18.464;2023-03-25T08:13:40;8.40;;;3.50;;
59587;SDS011;45412;54.472;18.464;2023-03-25T08:16:26;9.70;;;4.20;;
59587;SDS011;45412;54.472;18.464;2023-03-25T08:19:13;11.30;;;4.40;;
59587;SDS011;45412;54.472;18.464;2023-03-25T08:21:59;15.40;;;7.80;;
59587;SDS011;45412;54.472;18.464;2023-03-25T08:24:47;8.70;;;3.10;;
59587;SDS011;45412;54.472;18.464;2023-03-25T08:27:33;9.20;;;3.00;;
59587;SDS011;45412;54.472;18.464;2023-03-25T08:30:20;14.20;;;8.00;;
59587;SDS011;45412;54.472;18.464;2023-03-25T08:33:08;12.10;;;5.40;;
59587;SDS011;45412;54.472;18.464;2023-03-25T08:35:56;13.60;;;8.20;;
59587;SDS011;45412;54.472;18.464;2023-03-25T08:38:43;12.10;;;6.70;;
59587;SDS011;45412;54.472;18.464;2023-03-25T08:41:29;10.90;;;3.30;;
59587;SDS011;45412;54.472;18.464;2023-03-25T08:44:16;8.60;;;2.80;;
59587;SDS011;45412;54.472;18.464;2023-03-25T08:47:03;10.60;;;3.80;;
59587;SDS011;45412;54.472;18.464;2023-03-25T08:49:49;8.70;;;3.10;;
59587;SDS011;45412;54.472;18.464;2023-03-25T08:52:36;8.90;;;2.80;;
59587;SDS011;45412;54.472;18.464;2023-03-25T08:55:24;11.00;;;3.80;;
59587;SDS011;45412;54.472;18.464;2023-03-25T08:58:10;9.50;;;3.00;;
59587;SDS011;45412;54.472;18.464;2023-03-25T09:00:57;10.20;;;2.80;;
59587;SDS011;45412;54.472;18.464;2023-03-25T09:03:43;9.00;;;2.80;;
59587;SDS011;45412;54.472;18.464;2023-03-25T09:06:31;11.70;;;2.70;;
59587;SDS011;45412;54.472;18.464;2023-03-25T09:09:41;9.10;;;2.60;;
59587;SDS011;45412;54.472;18.464;2023-03-25T09:12:27;8.80;;;2.50;;
59587;SDS011;45412;54.472;18.464;2023-03-25T09:15:14;8.90;;;2.50;;
59587;SDS011;45412;54.472;18.464;2023-03-25T09:18:00;10.60;;;2.60;;
59587;SDS011;45412;54.472;18.464;2023-03-25T09:20:48;7.70;;;2.40;;
59587;SDS011;45412;54.472;18.464;2023-03-25T09:23:36;11.00;;;3.10;;
59587;SDS011;45412;54.472;18.464;2023-03-25T09:26:23;9.30;;;2.80;;
59587;SDS011;45412;54.472;18.464;2023-03-25T09:29:11;9.60;;;2.90;;
59587;SDS011;45412;54.472;18.464;2023-03-25T09:31:58;9.00;;;2.90;;
59587;SDS011;45412;54.472;18.464;2023-03-25T09:34:45;9.50;;;3.00;;
59587;SDS011;45412;54.472;18.464;2023-03-25T09:37:34;8.20;;;2.50;;
59587;SDS011;45412;54.472;18.464;2023-03-25T09:40:22;9.40;;;2.30;;
59587;SDS011;45412;54.472;18.464;2023-03-25T09:43:30;8.40;;;2.50;;
59587;SDS011;45412;54.472;18.464;2023-03-25T09:46:41;9.40;;;2.50;;
59587;SDS011;45412;54.472;18.464;2023-03-25T09:49:36;9.10;;;2.70;;
59587;SDS011;45412;54.472;18.464;2023-03-25T09:52:32;7.80;;;2.80;;
59587;SDS011;45412;54.472;18.464;2023-03-25T09:55:29;7.70;;;2.30;;
59587;SDS011;45412;54.472;18.464;2023-03-25T09:58:43;10.80;;;2.90;;
59587;SDS011;45412;54.472;18.464;2023-03-25T10:09:03;9.30;;;3.10;;
59587;SDS011;45412;54.472;18.464;2023-03-25T10:15:31;10.70;;;4.10;;
59587;SDS011;45412;54.472;18.464;2023-03-25T10:21:39;10.20;;;3.50;;
59587;SDS011;45412;54.472;18.464;2023-03-25T10:27:36;10.50;;;2.90;;
59587;SDS011;45412;54.472;18.464;2023-03-25T10:30:29;9.20;;;2.40;;
59587;SDS011;45412;54.472;18.464;2023-03-25T10:36:33;8.90;;;2.90;;
59587;SDS011;45412;54.472;18.464;2023-03-25T10:39:28;11.80;;;3.20;;
59587;SDS011;45412;54.472;18.464;2023-03-25T10:42:26;8.20;;;2.40;;
59587;SDS011;45412;54.472;18.464;2023-03-25T10:45:17;7.50;;;2.50;;
59587;SDS011;45412;54.472;18.464;2023-03-25T10:48:16;7.80;;;2.60;;
59587;SDS011;45412;54.472;18.464;2023-03-25T10:51:12;7.40;;;2.30;;
59587;SDS011;45412;54.472;18.464;2023-03-25T10:54:02;9.80;;;2.30;;
59587;SDS011;45412;54.472;18.464;2023-03-25T10:56:50;8.50;;;2.40;;
59587;SDS011;45412;54.472;18.464;2023-03-25T11:02:51;7.00;;;2.10;;
59587;SDS011;45412;54.472;18.464;2023-03-25T11:05:38;8.30;;;2.60;;
59587;SDS011;45412;54.472;18.464;2023-03-25T11:08:25;6.30;;;2.40;;
59587;SDS011;45412;54.472;18.464;2023-03-25T11:11:12;7.70;;;2.20;;
59587;SDS011;45412;54.472;18.464;2023-03-25T11:13:59;7.90;;;2.40;;
59587;SDS011;45412;54.472;18.464;2023-03-25T11:16:56;6.70;;;1.90;;
59587;SDS011;45412;54.472;18.464;2023-03-25T11:20:01;6.40;;;2.10;;
59587;SDS011;45412;54.472;18.464;2023-03-25T11:23:02;6.70;;;2.40;;
59587;SDS011;45412;54.472;18.464;2023-03-25T11:26:07;7.30;;;2.30;;
59587;SDS011;45412;54.472;18.464;2023-03-25T11:29:17;7.50;;;2.00;;
59587;SDS011;45412;54.472;18.464;2023-03-25T11:32:14;6.30;;;2.20;;
59587;SDS011;45412;54.472;18.464;2023-03-25T11:35:15;8.50;;;2.10;;
59587;SDS011;45412;54.472;18.464;2023-03-25T11:38:21;6.40;;;1.50;;
59587;SDS011;45412;54.472;18.464;2023-03-25T11:41:08;5.90;;;1.80;;
59587;SDS011;45412;54.472;18.464;2023-03-25T11:43:58;5.00;;;1.50;;
59587;SDS011;45412;54.472;18.464;2023-03-25T11:46:45;5.80;;;1.70;;
59587;SDS011;45412;54.472;18.464;2023-03-25T11:49:37;5.70;;;1.60;;
59587;SDS011;45412;54.472;18.464;2023-03-25T11:52:39;6.50;;;1.90;;
59587;SDS011;45412;54.472;18.464;2023-03-25T11:55:31;6.00;;;1.90;;
59587;SDS011;45412;54.472;18.464;2023-03-25T11:58:32;6.30;;;1.80;;
59587;SDS011;45412;54.472;18.464;2023-03-25T12:01:41;6.60;;;2.10;;
59587;SDS011;45412;54.472;18.464;2023-03-25T12:04:31;6.70;;;2.00;;
59587;SDS011;45412;54.472;18.464;2023-03-25T12:07:20;7.30;;;2.30;;
59587;SDS011;45412;54.472;18.464;2023-03-25T12:10:24;6.60;;;2.10;;
59587;SDS011;45412;54.472;18.464;2023-03-25T12:17:06;7.80;;;2.20;;
59587;SDS011;45412;54.472;18.464;2023-03-25T12:27:26;6.40;;;2.20;;
59587;SDS011;45412;54.472;18.464;2023-03-25T12:53:46;7.50;;;1.80;;
59587;SDS011;45412;54.472;18.464;2023-03-25T13:10:16;7.80;;;1.90;;
59587;SDS011;45412;54.472;18.464;2023-03-25T13:13:17;6.60;;;2.40;;
59587;SDS011;45412;54.472;18.464;2023-03-25T13:16:10;6.20;;;2.20;;
59587;SDS011;45412;54.472;18.464;2023-03-25T13:19:08;9.00;;;2.10;;
59587;SDS011;45412;54.472;18.464;2023-03-25T13:22:03;7.90;;;2.00;;
59587;SDS011;45412;54.472;18.464;2023-03-25T13:24:59;9.10;;;2.50;;
59587;SDS011;45412;54.472;18.464;2023-03-25T13:27:49;6.30;;;2.10;;
59587;SDS011;45412;54.472;18.464;2023-03-25T13:30:40;9.20;;;2.50;;
59587;SDS011;45412;54.472;18.464;2023-03-25T13:33:31;9.10;;;2.80;;
59587;SDS011;45412;54.472;18.464;2023-03-25T13:36:30;8.60;;;2.50;;
59587;SDS011;45412;54.472;18.464;2023-03-25T13:39:26;8.70;;;2.70;;
59587;SDS011;45412;54.472;18.464;2023-03-25T13:49:05;5.40;;;1.50;;
59587;SDS011;45412;54.472;18.464;2023-03-25T13:51:54;5.40;;;1.40;;
59587;SDS011;45412;54.472;18.464;2023-03-25T13:54:50;7.10;;;1.60;;
59587;SDS011;45412;54.472;18.464;2023-03-25T14:13:55;6.40;;;1.90;;
59587;SDS011;45412;54.472;18.464;2023-03-25T14:17:04;7.90;;;2.30;;
59587;SDS011;45412;54.472;18.464;2023-03-25T14:19:52;12.40;;;3.60;;
59587;SDS011;45412;54.472;18.464;2023-03-25T14:22:43;10.20;;;3.80;;
59587;SDS011;45412;54.472;18.464;2023-03-25T14:25:36;8.10;;;3.00;;
59587;SDS011;45412;54.472;18.464;2023-03-25T14:28:40;8.50;;;2.90;;
59587;SDS011;45412;54.472;18.464;2023-03-25T14:31:30;9.10;;;4.00;;
59587;SDS011;45412;54.472;18.464;2023-03-25T14:34:22;7.90;;;3.20;;
59587;SDS011;45412;54.472;18.464;2023-03-25T14:37:31;8.50;;;3.40;;
59587;SDS011;45412;54.472;18.464;2023-03-25T14:40:48;9.60;;;3.30;;
59587;SDS011;45412;54.472;18.464;2023-03-25T14:43:51;9.20;;;3.30;;
59587;SDS011;45412;54.472;18.464;2023-03-25T14:53:09;8.50;;;3.20;;
59587;SDS011;45412;54.472;18.464;2023-03-25T14:55:59;9.30;;;3.60;;
59587;SDS011;45412;54.472;18.464;2023-03-25T14:58:51;8.70;;;3.10;;
59587;SDS011;45412;54.472;18.464;2023-03-25T15:01:40;10.50;;;3.30;;
59587;SDS011;45412;54.472;18.464;2023-03-25T15:04:33;9.50;;;3.30;;
59587;SDS011;45412;54.472;18.464;2023-03-25T15:10:42;7.50;;;2.90;;
59587;SDS011;45412;54.472;18.464;2023-03-25T15:13:54;7.50;;;3.10;;
59587;SDS011;45412;54.472;18.464;2023-03-25T15:26:03;8.60;;;2.80;;
59587;SDS011;45412;54.472;18.464;2023-03-25T15:35:49;9.80;;;2.90;;
59587;SDS011;45412;54.472;18.464;2023-03-25T15:38:49;6.70;;;2.30;;
59587;SDS011;45412;54.472;18.464;2023-03-25T15:45:21;10.20;;;3.30;;
59587;SDS011;45412;54.472;18.464;2023-03-25T15:54:45;8.40;;;2.90;;
59587;SDS011;45412;54.472;18.464;2023-03-25T15:57:44;9.70;;;3.50;;
59587;SDS011;45412;54.472;18.464;2023-03-25T16:00:37;9.10;;;3.60;;
59587;SDS011;45412;54.472;18.464;2023-03-25T16:03:29;8.40;;;2.80;;
59587;SDS011;45412;54.472;18.464;2023-03-25T16:06:19;9.20;;;3.10;;
59587;SDS011;45412;54.472;18.464;2023-03-25T16:09:19;8.60;;;3.20;;
59587;SDS011;45412;54.472;18.464;2023-03-25T16:12:16;10.00;;;6.00;;
59587;SDS011;45412;54.472;18.464;2023-03-25T16:15:05;8.30;;;2.90;;
59587;SDS011;45412;54.472;18.464;2023-03-25T16:17:53;7.70;;;3.00;;
59587;SDS011;45412;54.472;18.464;2023-03-25T16:20:42;8.20;;;3.40;;
59587;SDS011;45412;54.472;18.464;2023-03-25T16:23:31;7.50;;;3.10;;
59587;SDS011;45412;54.472;18.464;2023-03-25T16:26:52;8.60;;;2.80;;
59587;SDS011;45412;54.472;18.464;2023-03-25T16:29:38;9.30;;;3.00;;
59587;SDS011;45412;54.472;18.464;2023-03-25T16:32:33;10.30;;;3.50;;
59587;SDS011;45412;54.472;18.464;2023-03-25T16:35:24;7.20;;;2.70;;
59587;SDS011;45412;54.472;18.464;2023-03-25T16:38:14;8.60;;;2.80;;
59587;SDS011;45412;54.472;18.464;2023-03-25T16:41:10;9.50;;;3.60;;
59587;SDS011;45412;54.472;18.464;2023-03-25T16:43:58;9.00;;;3.50;;
59587;SDS011;45412;54.472;18.464;2023-03-25T16:46:49;11.20;;;4.20;;
59587;SDS011;45412;54.472;18.464;2023-03-25T16:49:37;11.30;;;4.70;;
59587;SDS011;45412;54.472;18.464;2023-03-25T16:52:25;10.70;;;4.10;;
59587;SDS011;45412;54.472;18.464;2023-03-25T16:55:27;10.10;;;4.60;;
59587;SDS011;45412;54.472;18.464;2023-03-25T16:58:20;12.20;;;4.90;;
59587;SDS011;45412;54.472;18.464;2023-03-25T17:01:10;12.30;;;5.40;;
59587;SDS011;45412;54.472;18.464;2023-03-25T17:04:18;12.70;;;5.90;;
59587;SDS011;45412;54.472;18.464;2023-03-25T17:07:11;12.60;;;5.60;;
59587;SDS011;45412;54.472;18.464;2023-03-25T17:10:57;10.30;;;4.10;;
59587;SDS011;45412;54.472;18.464;2023-03-25T17:13:45;11.30;;;4.30;;
59587;SDS011;45412;54.472;18.464;2023-03-25T17:17:12;8.80;;;3.70;;
59587;SDS011;45412;54.472;18.464;2023-03-25T17:20:29;9.80;;;3.80;;
59587;SDS011;45412;54.472;18.464;2023-03-25T17:23:42;7.60;;;3.10;;
59587;SDS011;45412;54.472;18.464;2023-03-25T17:26:33;10.20;;;3.90;;
59587;SDS011;45412;54.472;18.464;2023-03-25T17:29:59;8.90;;;3.70;;
59587;SDS011;45412;54.472;18.464;2023-03-25T17:33:19;10.20;;;3.20;;
59587;SDS011;45412;54.472;18.464;2023-03-25T17:36:19;11.40;;;3.90;;
59587;SDS011;45412;54.472;18.464;2023-03-25T17:39:24;10.40;;;4.50;;
59587;SDS011;45412;54.472;18.464;2023-03-25T17:42:21;10.40;;;4.60;;
59587;SDS011;45412;54.472;18.464;2023-03-25T17:45:13;10.60;;;3.80;;
59587;SDS011;45412;54.472;18.464;2023-03-25T17:48:00;10.30;;;3.70;;
59587;SDS011;45412;54.472;18.464;2023-03-25T17:50:51;8.60;;;3.50;;
59587;SDS011;45412;54.472;18.464;2023-03-25T17:53:39;10.80;;;3.60;;
59587;SDS011;45412;54.472;18.464;2023-03-25T17:56:26;8.60;;;3.40;;
59587;SDS011;45412;54.472;18.464;2023-03-25T17:59:18;9.50;;;4.00;;
59587;SDS011;45412;54.472;18.464;2023-03-25T18:02:36;8.30;;;3.70;;
59587;SDS011;45412;54.472;18.464;2023-03-25T18:05:24;8.40;;;3.60;;
59587;SDS011;45412;54.472;18.464;2023-03-25T18:08:11;8.00;;;3.20;;
59587;SDS011;45412;54.472;18.464;2023-03-25T18:11:00;8.70;;;3.20;;
59587;SDS011;45412;54.472;18.464;2023-03-25T18:13:47;7.60;;;3.00;;
59587;SDS011;45412;54.472;18.464;2023-03-25T18:16:34;8.00;;;2.60;;
59587;SDS011;45412;54.472;18.464;2023-03-25T18:19:23;8.10;;;3.20;;
59587;SDS011;45412;54.472;18.464;2023-03-25T18:22:12;9.20;;;3.00;;
59587;SDS011;45412;54.472;18.464;2023-03-25T18:25:06;8.40;;;2.80;;
59587;SDS011;45412;54.472;18.464;2023-03-25T18:27:56;9.30;;;3.50;;
59587;SDS011;45412;54.472;18.464;2023-03-25T18:30:55;10.10;;;3.60;;
59587;SDS011;45412;54.472;18.464;2023-03-25T18:33:52;9.80;;;3.30;;
59587;SDS011;45412;54.472;18.464;2023-03-25T18:36:41;9.40;;;3.30;;
59587;SDS011;45412;54.472;18.464;2023-03-25T18:39:28;12.00;;;3.90;;
59587;SDS011;45412;54.472;18.464;2023-03-25T18:42:17;12.10;;;4.10;;
59587;SDS011;45412;54.472;18.464;2023-03-25T18:45:03;10.10;;;3.70;;
59587;SDS011;45412;54.472;18.464;2023-03-25T18:47:50;7.50;;;3.10;;
59587;SDS011;45412;54.472;18.464;2023-03-25T18:50:43;9.20;;;3.80;;
59587;SDS011;45412;54.472;18.464;2023-03-25T18:53:35;12.50;;;4.60;;
59587;SDS011;45412;54.472;18.464;2023-03-25T18:56:23;10.80;;;4.30;;
59587;SDS011;45412;54.472;18.464;2023-03-25T18:59:10;10.20;;;3.90;;
59587;SDS011;45412;54.472;18.464;2023-03-25T19:02:01;10.90;;;3.70;;
59587;SDS011;45412;54.472;18.464;2023-03-25T19:04:47;10.50;;;4.30;;
59587;SDS011;45412;54.472;18.464;2023-03-25T19:07:46;10.40;;;4.00;;
59587;SDS011;45412;54.472;18.464;2023-03-25T19:10:37;10.90;;;3.80;;
59587;SDS011;45412;54.472;18.464;2023-03-25T19:13:23;10.30;;;4.20;;
59587;SDS011;45412;54.472;18.464;2023-03-25T19:16:10;10.80;;;4.30;;
59587;SDS011;45412;54.472;18.464;2023-03-25T19:18:56;11.10;;;4.80;;
59587;SDS011;45412;54.472;18.464;2023-03-25T19:21:44;14.10;;;4.90;;
59587;SDS011;45412;54.472;18.464;2023-03-25T19:24:31;10.70;;;4.70;;
59587;SDS011;45412;54.472;18.464;2023-03-25T19:27:17;11.90;;;4.80;;
59587;SDS011;45412;54.472;18.464;2023-03-25T19:30:06;13.20;;;4.90;;
59587;SDS011;45412;54.472;18.464;2023-03-25T19:32:53;15.70;;;6.30;;
59587;SDS011;45412;54.472;18.464;2023-03-25T19:35:49;15.20;;;6.50;;
59587;SDS011;45412;54.472;18.464;2023-03-25T19:38:43;13.80;;;6.60;;
59587;SDS011;45412;54.472;18.464;2023-03-25T19:41:31;15.70;;;6.70;;
59587;SDS011;45412;54.472;18.464;2023-03-25T19:44:20;14.40;;;6.90;;
59587;SDS011;45412;54.472;18.464;2023-03-25T19:47:09;13.80;;;7.00;;